Time;durP1;ratioP1;P1;durP2;ratioP2;P2;SDS_P1;SDS_P2;PMS_P1;PMS_P2;Temp;Humidity;BMP_temperature;BMP_pressure;BME280_temperature;BME280_humidity;BME280_pressure;Samples;Min_cycle;Max_cycle;Signal;HPM_P1;HPM_P2
2022/04/20 00:00:56;;;;;;;17.90;9.90;;;10.20;99.90;;;;;;4992552;28;20225;-60
2022/04/20 00:03:21;;;;;;;14.90;10.00;;;10.20;99.90;;;;;;4992631;28;20218;-60
2022/04/20 00:05:47;;;;;;;14.13;9.00;;;10.20;99.90;;;;;;5002298;28;20705;-60
2022/04/20 00:08:13;;;;;;;16.17;9.83;;;10.10;99.90;;;;;;5000842;28;20187;-60
2022/04/20 00:10:39;;;;;;;17.50;9.57;;;10.20;99.90;;;;;;5000882;28;20213;-60
2022/04/20 00:13:04;;;;;;;19.33;10.37;;;10.10;99.90;;;;;;5010699;28;20242;-60
2022/04/20 00:15:30;;;;;;;18.47;10.27;;;10.10;99.90;;;;;;5010789;28;20574;-61
2022/04/20 00:17:56;;;;;;;16.30;10.57;;;10.10;99.90;;;;;;5010542;28;20641;-62
2022/04/20 00:20:22;;;;;;;21.20;10.93;;;10.10;99.90;;;;;;4992179;28;20179;-62
2022/04/20 00:22:47;;;;;;;16.10;10.80;;;10.10;99.90;;;;;;5005073;28;20171;-62
2022/04/20 00:25:13;;;;;;;17.77;11.27;;;10.00;99.90;;;;;;4998413;28;20183;-62
2022/04/20 00:27:39;;;;;;;19.60;11.13;;;10.00;99.90;;;;;;5008704;28;20177;-63
2022/04/20 00:30:10;;;;;;;18.27;10.87;;;10.00;99.90;;;;;;5008603;28;20187;-62
2022/04/20 00:32:36;;;;;;;20.67;10.73;;;9.90;99.90;;;;;;5010469;28;20183;-62
2022/04/20 00:35:01;;;;;;;19.67;11.27;;;10.00;99.90;;;;;;5009121;28;20186;-62
2022/04/20 00:37:28;;;;;;;18.20;11.17;;;9.90;99.90;;;;;;5010558;28;20175;-62
2022/04/20 00:39:54;;;;;;;16.30;10.83;;;9.90;99.90;;;;;;5010199;28;20202;-63
2022/04/20 00:42:23;;;;;;;18.57;11.27;;;9.90;99.90;;;;;;4993450;28;20654;-59
2022/04/20 00:44:52;;;;;;;20.20;10.97;;;9.80;99.90;;;;;;4992009;28;20207;-61
2022/04/20 00:47:18;;;;;;;19.80;11.17;;;9.80;99.90;;;;;;4991024;28;20175;-62
2022/04/20 00:49:46;;;;;;;24.07;11.77;;;9.70;99.90;;;;;;4990978;28;20186;-63
2022/04/20 00:52:12;;;;;;;20.67;11.80;;;9.60;99.90;;;;;;4992077;28;20183;-62
2022/04/20 00:54:38;;;;;;;17.07;11.03;;;9.60;99.90;;;;;;4992467;28;20179;-62
2022/04/20 00:57:05;;;;;;;24.70;11.90;;;9.60;99.90;;;;;;5008355;28;20242;-62
2022/04/20 00:59:32;;;;;;;17.97;12.10;;;9.50;99.90;;;;;;4999999;28;20175;-60
2022/04/20 01:01:59;;;;;;;22.10;12.57;;;9.50;99.90;;;;;;4993881;28;20164;-63
2022/04/20 01:04:50;;;;;;;18.30;11.73;;;9.50;99.90;;;;;;4990418;28;20218;-63
2022/04/20 01:07:16;;;;;;;21.87;13.23;;;9.40;99.90;;;;;;5004514;28;20681;-60
2022/04/20 01:09:43;;;;;;;23.07;13.53;;;8.70;99.90;;;;;;4996980;28;20211;-61
2022/04/20 01:12:11;;;;;;;23.83;12.50;;;9.40;99.90;;;;;;4991223;28;20262;-62
2022/04/20 01:14:37;;;;;;;20.50;11.73;;;9.30;99.90;;;;;;5010373;28;20206;-62
2022/04/20 01:17:03;;;;;;;19.27;12.83;;;9.40;99.90;;;;;;5009733;28;20648;-62
2022/04/20 01:19:40;;;;;;;28.53;12.97;;;9.30;99.90;;;;;;5010089;28;20191;-62
2022/04/20 01:22:09;;;;;;;23.60;12.50;;;9.30;99.90;;;;;;5006940;28;20190;-62
2022/04/20 01:24:37;;;;;;;24.23;12.80;;;9.30;99.90;;;;;;5012807;28;20222;-61
2022/04/20 01:27:06;;;;;;;21.63;13.10;;;9.20;99.90;;;;;;5013552;28;20187;-61
2022/04/20 01:29:32;;;;;;;19.20;12.43;;;9.20;99.90;;;;;;5013667;28;20174;-61
2022/04/20 01:31:58;;;;;;;20.90;13.17;;;9.20;99.90;;;;;;5011907;28;20189;-62
2022/04/20 01:34:24;;;;;;;22.93;12.67;;;9.30;99.90;;;;;;5013527;28;20179;-62
2022/04/20 01:36:51;;;;;;;18.07;11.97;;;9.30;99.90;;;;;;4996901;28;20179;-62
2022/04/20 01:39:17;;;;;;;18.50;12.57;;;9.20;99.90;;;;;;5012619;28;20600;-62
2022/04/20 01:41:43;;;;;;;22.77;13.10;;;9.30;99.90;;;;;;5001680;28;20179;-62
2022/04/20 01:44:10;;;;;;;21.80;12.70;;;9.30;99.90;;;;;;5002019;28;20219;-62
2022/04/20 01:46:35;;;;;;;16.67;11.50;;;9.30;99.90;;;;;;5011840;28;20273;-62
2022/04/20 01:49:03;;;;;;;19.20;11.90;;;9.30;99.90;;;;;;5013128;28;20183;-62
2022/04/20 01:51:47;;;;;;;20.77;12.17;;;9.40;99.90;;;;;;5009638;28;20175;-62
2022/04/20 01:54:13;;;;;;;17.83;11.87;;;9.40;99.90;;;;;;4996941;28;20227;-62
2022/04/20 01:56:39;;;;;;;16.77;11.73;;;9.40;99.90;;;;;;5009627;28;20206;-62
2022/04/20 01:59:05;;;;;;;19.37;10.90;;;9.40;99.90;;;;;;4992741;28;20231;-61
2022/04/20 02:04:15;;;;;;;17.93;11.00;;;9.50;99.90;;;;;;4992949;28;20226;-60
2022/04/20 02:06:41;;;;;;;20.10;10.40;;;9.50;99.90;;;;;;5001018;28;20170;-60
2022/04/20 02:09:07;;;;;;;16.53;9.90;;;9.50;99.90;;;;;;5011462;28;20217;-60
2022/04/20 02:11:33;;;;;;;15.87;10.30;;;9.60;99.90;;;;;;5011444;28;20618;-60
2022/04/20 02:13:59;;;;;;;21.87;10.37;;;9.60;99.90;;;;;;5010392;28;20262;-60
2022/04/20 02:16:25;;;;;;;18.87;10.33;;;9.60;99.90;;;;;;4993040;28;20199;-60
2022/04/20 02:18:51;;;;;;;16.43;10.20;;;9.60;99.90;;;;;;4992233;28;20623;-60
2022/04/20 02:21:17;;;;;;;19.60;10.73;;;9.60;99.90;;;;;;4994184;28;20669;-60
2022/04/20 02:23:42;;;;;;;16.00;9.10;;;9.60;99.90;;;;;;5011569;28;20687;-60
2022/04/20 02:26:08;;;;;;;16.37;9.23;;;9.70;99.90;;;;;;4992218;28;20326;-61
2022/04/20 02:28:34;;;;;;;19.50;9.97;;;9.70;99.90;;;;;;4992171;28;20179;-61
2022/04/20 02:31:00;;;;;;;17.40;9.30;;;9.70;99.90;;;;;;4993089;28;20670;-61
2022/04/20 02:33:25;;;;;;;15.30;8.33;;;9.80;99.90;;;;;;4990945;28;20179;-61
2022/04/20 02:35:51;;;;;;;13.90;8.13;;;9.80;99.90;;;;;;4990667;28;20175;-61
2022/04/20 02:38:18;;;;;;;15.03;8.33;;;9.80;99.90;;;;;;4991755;28;20175;-59
2022/04/20 02:40:45;;;;;;;15.57;8.27;;;9.80;99.90;;;;;;4992153;28;20179;-62
2022/04/20 02:43:11;;;;;;;14.33;8.50;;;9.90;99.90;;;;;;5011499;28;20206;-60
2022/04/20 02:45:38;;;;;;;18.27;8.73;;;9.90;99.90;;;;;;5010925;28;20193;-61
2022/04/20 02:48:04;;;;;;;14.77;9.07;;;9.90;99.90;;;;;;5005737;28;20202;-61
2022/04/20 02:50:30;;;;;;;19.07;9.37;;;10.00;99.90;;;;;;4991762;28;20258;-61
2022/04/20 02:52:56;;;;;;;21.07;9.30;;;9.90;99.90;;;;;;4993197;28;20329;-60
2022/04/20 02:55:22;;;;;;;15.90;9.47;;;10.00;99.90;;;;;;5011038;28;20233;-61
2022/04/20 02:57:48;;;;;;;15.37;8.37;;;10.00;99.90;;;;;;5004212;28;180812;-61
2022/04/20 03:00:15;;;;;;;14.30;8.83;;;9.90;99.90;;;;;;5012147;28;20187;-61
2022/04/20 03:02:41;;;;;;;15.40;8.67;;;9.90;99.90;;;;;;5011518;28;20178;-61
2022/04/20 03:05:07;;;;;;;16.43;8.77;;;9.80;99.90;;;;;;5010592;28;20697;-61
2022/04/20 03:07:33;;;;;;;13.67;8.43;;;9.80;99.90;;;;;;5000828;28;20182;-61
2022/04/20 03:09:59;;;;;;;18.50;9.10;;;9.80;99.90;;;;;;5011502;28;20181;-61
2022/04/20 03:12:25;;;;;;;15.87;8.23;;;9.70;99.90;;;;;;5012051;28;20178;-61
2022/04/20 03:14:54;;;;;;;17.93;8.27;;;9.70;99.90;;;;;;5003050;28;20813;-61
2022/04/20 03:17:21;;;;;;;18.17;9.77;;;9.60;99.90;;;;;;4992183;28;20175;-60
2022/04/20 03:19:47;;;;;;;17.73;10.17;;;9.50;99.90;;;;;;5011482;28;20175;-61
2022/04/20 03:22:14;;;;;;;16.07;9.87;;;9.50;99.90;;;;;;5011828;28;20258;-60
2022/04/20 03:24:39;;;;;;;16.77;9.63;;;9.40;99.90;;;;;;5011222;28;20214;-60
2022/04/20 03:27:05;;;;;;;19.70;9.60;;;9.40;99.90;;;;;;5011275;28;20170;-60
2022/04/20 03:29:31;;;;;;;20.57;10.20;;;9.40;99.90;;;;;;5011399;28;20707;-59
2022/04/20 03:31:57;;;;;;;15.37;9.47;;;9.40;99.90;;;;;;5011563;28;20171;-60
2022/04/20 03:34:23;;;;;;;22.33;10.07;;;9.40;99.90;;;;;;5011307;28;20200;-60
2022/04/20 03:36:49;;;;;;;21.03;10.13;;;9.40;99.90;;;;;;5011094;28;20186;-60
2022/04/20 03:39:15;;;;;;;16.37;10.53;;;9.40;99.90;;;;;;5009879;28;20228;-60
2022/04/20 03:41:41;;;;;;;17.47;10.33;;;9.30;99.90;;;;;;4995160;28;20171;-60
2022/04/20 03:44:08;;;;;;;16.37;10.23;;;9.30;99.90;;;;;;5010996;28;20225;-60
2022/04/20 03:46:34;;;;;;;20.70;10.70;;;9.30;99.90;;;;;;5008712;28;20228;-60
2022/04/20 03:49:00;;;;;;;16.63;9.93;;;9.30;99.90;;;;;;4992833;28;20305;-60
2022/04/20 03:51:26;;;;;;;18.27;11.33;;;9.30;99.90;;;;;;4995430;28;20744;-60
2022/04/20 03:53:51;;;;;;;17.73;10.40;;;9.20;99.90;;;;;;4991565;28;20186;-60
2022/04/20 03:56:17;;;;;;;21.00;10.40;;;9.20;99.90;;;;;;4992508;28;20207;-60
2022/04/20 03:58:43;;;;;;;21.00;10.90;;;9.10;99.90;;;;;;4990417;28;20175;-60
2022/04/20 04:01:09;;;;;;;24.30;12.03;;;9.10;99.90;;;;;;4991614;28;20172;-62
2022/04/20 04:03:35;;;;;;;21.07;12.27;;;9.10;99.90;;;;;;4991383;28;20330;-62
2022/04/20 04:06:01;;;;;;;22.13;11.10;;;9.10;99.90;;;;;;4993183;28;20265;-62
2022/04/20 04:08:27;;;;;;;22.03;11.43;;;9.00;99.90;;;;;;5009910;28;20261;-62
2022/04/20 04:10:52;;;;;;;22.10;11.70;;;9.00;99.90;;;;;;4998211;28;20569;-63
2022/04/20 04:13:19;;;;;;;16.90;10.70;;;8.90;99.90;;;;;;5010953;28;20655;-63
2022/04/20 04:15:44;;;;;;;24.13;11.30;;;8.90;99.90;;;;;;5007296;28;20198;-62
2022/04/20 04:18:10;;;;;;;19.20;11.43;;;8.90;99.90;;;;;;4999138;28;20220;-62
2022/04/20 04:20:37;;;;;;;21.13;11.27;;;8.90;99.90;;;;;;5010363;28;20646;-61
2022/04/20 04:23:03;;;;;;;21.13;11.80;;;8.80;99.90;;;;;;5010842;28;20182;-62
2022/04/20 04:25:29;;;;;;;20.83;11.43;;;8.90;99.90;;;;;;5010411;28;20187;-61
2022/04/20 04:27:55;;;;;;;17.77;10.43;;;8.80;99.90;;;;;;5008826;28;20207;-61
2022/04/20 04:30:21;;;;;;;20.40;11.27;;;8.70;99.90;;;;;;5010440;28;20959;-63
2022/04/20 04:32:47;;;;;;;20.17;11.50;;;8.70;99.90;;;;;;5010517;28;20178;-62
2022/04/20 04:35:13;;;;;;;20.47;11.53;;;8.70;99.90;;;;;;5010060;28;20236;-62
2022/04/20 04:37:39;;;;;;;18.97;11.43;;;8.70;99.90;;;;;;5010351;28;20646;-62
2022/04/20 04:40:06;;;;;;;21.97;11.63;;;8.60;99.90;;;;;;5010314;28;20183;-62
2022/04/20 04:42:32;;;;;;;20.33;12.13;;;8.60;99.90;;;;;;5009132;28;20182;-62
2022/04/20 04:48:36;;;;;;;28.90;12.43;;;8.60;99.90;;;;;;4993747;28;20627;-62
2022/04/20 04:50:28;;;;;;;24.00;11.83;;;8.50;99.90;;;;;;4991138;28;20236;-62
2022/04/20 04:52:54;;;;;;;24.93;12.23;;;8.50;99.90;;;;;;5000108;28;20179;-62
2022/04/20 04:55:20;;;;;;;28.70;12.47;;;8.50;99.90;;;;;;5008802;28;20179;-62
2022/04/20 04:57:46;;;;;;;20.53;11.70;;;8.50;99.90;;;;;;5006461;28;20348;-61
2022/04/20 05:00:12;;;;;;;26.20;11.67;;;8.50;99.90;;;;;;4995288;28;20205;-62
2022/04/20 05:02:38;;;;;;;19.37;11.60;;;8.50;99.90;;;;;;4994723;28;20179;-62
2022/04/20 05:05:05;;;;;;;23.73;13.30;;;8.50;99.90;;;;;;4995700;28;20237;-61
2022/04/20 05:07:30;;;;;;;24.63;12.43;;;8.50;99.90;;;;;;5010112;28;20278;-59
2022/04/20 05:09:56;;;;;;;24.17;12.40;;;8.40;99.90;;;;;;5013955;28;20186;-59
2022/04/20 05:12:22;;;;;;;21.43;12.40;;;8.40;99.90;;;;;;5011042;28;20208;-60
2022/04/20 05:14:48;;;;;;;23.70;12.60;;;8.40;99.90;;;;;;5004305;28;20657;-60
2022/04/20 05:17:13;;;;;;;24.20;12.17;;;8.30;99.90;;;;;;5014041;28;20179;-60
2022/04/20 05:19:39;;;;;;;25.73;13.60;;;8.30;99.90;;;;;;5013505;28;20590;-60
2022/04/20 05:22:05;;;;;;;26.20;13.40;;;8.30;99.90;;;;;;5013989;28;20182;-60
2022/04/20 05:24:31;;;;;;;23.77;12.37;;;8.30;99.90;;;;;;5007152;28;20243;-60
2022/04/20 05:26:58;;;;;;;22.97;12.03;;;8.30;99.90;;;;;;4994258;28;20650;-60
2022/04/20 05:29:23;;;;;;;24.37;12.90;;;8.30;99.90;;;;;;4994764;28;20210;-60
2022/04/20 05:31:52;;;;;;;20.10;12.67;;;8.30;99.90;;;;;;4993823;28;20199;-60
2022/04/20 05:34:18;;;;;;;23.70;12.80;;;8.20;99.90;;;;;;4993805;28;20668;-60
2022/04/20 05:42:12;;;;;;;23.73;12.30;;;8.30;99.90;;;;;;5011820;28;20909;-60
2022/04/20 05:44:37;;;;;;;23.37;12.27;;;8.20;99.90;;;;;;5011343;28;20293;-60
2022/04/20 05:47:04;;;;;;;22.63;12.40;;;8.20;99.90;;;;;;5004960;28;20246;-60
2022/04/20 05:49:30;;;;;;;20.53;12.50;;;8.20;99.90;;;;;;5005857;28;20187;-60
2022/04/20 05:51:55;;;;;;;21.33;12.47;;;8.20;99.90;;;;;;5011913;28;20679;-59
2022/04/20 05:54:21;;;;;;;22.67;12.47;;;8.20;99.90;;;;;;4993444;28;20186;-59
2022/04/20 05:56:47;;;;;;;21.90;11.97;;;8.20;99.90;;;;;;4993479;28;20227;-60
2022/04/20 05:59:13;;;;;;;22.33;11.97;;;8.20;99.90;;;;;;4999340;28;20601;-60
2022/04/20 06:01:38;;;;;;;30.70;12.83;;;8.30;99.90;;;;;;5012841;28;20174;-60
2022/04/20 06:04:04;;;;;;;23.93;11.90;;;8.30;99.90;;;;;;5006055;28;20233;-60
2022/04/20 06:06:30;;;;;;;21.13;11.80;;;8.20;99.90;;;;;;5002987;28;20542;-60
2022/04/20 06:08:56;;;;;;;19.87;12.17;;;8.30;99.90;;;;;;5009836;28;20175;-61
2022/04/20 06:11:22;;;;;;;27.90;13.07;;;8.30;99.90;;;;;;4993032;28;20270;-61
2022/04/20 06:13:48;;;;;;;21.57;12.83;;;8.30;99.90;;;;;;4993280;28;20178;-61
2022/04/20 06:16:13;;;;;;;24.80;13.10;;;8.30;99.90;;;;;;5006155;28;20258;-61
2022/04/20 06:18:39;;;;;;;22.90;12.37;;;8.30;99.90;;;;;;5000179;28;20179;-61
2022/04/20 06:21:05;;;;;;;23.17;13.43;;;8.40;99.90;;;;;;5012697;28;20506;-61
2022/04/20 06:23:32;;;;;;;24.23;13.33;;;8.40;99.90;;;;;;5009355;28;20198;-62
2022/04/20 06:25:57;;;;;;;24.57;13.43;;;8.40;99.90;;;;;;5009794;28;20201;-61
2022/04/20 06:28:26;;;;;;;24.47;13.63;;;8.50;99.90;;;;;;5010565;28;20645;-61
2022/04/20 06:30:53;;;;;;;20.70;12.53;;;8.50;99.90;;;;;;4992739;28;20179;-61
2022/04/20 06:33:21;;;;;;;27.90;13.67;;;8.50;99.90;;;;;;4993173;28;20179;-62
2022/04/20 06:35:47;;;;;;;23.83;13.37;;;8.60;99.90;;;;;;5010776;28;20277;-63
2022/04/20 06:38:13;;;;;;;22.40;13.50;;;8.70;99.90;;;;;;5012239;28;20216;-63
2022/04/20 06:40:39;;;;;;;22.90;13.40;;;8.70;99.90;;;;;;4993183;28;20179;-63
2022/04/20 06:43:05;;;;;;;22.87;12.60;;;8.70;99.90;;;;;;4993922;28;20216;-63
2022/04/20 06:45:31;;;;;;;23.57;13.53;;;8.80;99.90;;;;;;4993936;28;20187;-63
2022/04/20 06:48:00;;;;;;;27.03;13.07;;;8.80;99.90;;;;;;4992527;28;20194;-69
2022/04/20 06:50:26;;;;;;;21.33;13.07;;;8.90;99.90;;;;;;5008079;28;20185;-64
2022/04/20 06:58:34;;;;;;;26.00;12.93;;;9.00;99.90;;;;;;5005583;28;20378;-60
2022/04/20 07:01:00;;;;;;;25.63;13.47;;;9.00;99.90;;;;;;5007323;28;20178;-63
2022/04/20 07:03:25;;;;;;;26.27;12.93;;;9.10;99.90;;;;;;5007553;28;20285;-63
2022/04/20 07:05:51;;;;;;;21.90;13.67;;;9.00;99.90;;;;;;4992247;28;20529;-62
2022/04/20 07:08:19;;;;;;;27.60;13.93;;;9.10;99.90;;;;;;4992562;28;20231;-63
2022/04/20 07:10:47;;;;;;;22.03;13.20;;;9.10;99.90;;;;;;4992544;28;20175;-64
2022/04/20 07:13:13;;;;;;;23.53;14.17;;;9.30;99.90;;;;;;4992127;28;20746;-64
2022/04/20 07:15:39;;;;;;;22.07;13.87;;;9.30;99.90;;;;;;5009682;28;20186;-64
2022/04/20 07:18:05;;;;;;;21.97;13.70;;;9.20;99.90;;;;;;5011898;28;20257;-64
2022/04/20 07:20:31;;;;;;;22.83;14.07;;;9.30;99.90;;;;;;5011333;28;20711;-64
2022/04/20 07:22:57;;;;;;;29.07;14.20;;;9.30;99.90;;;;;;5009417;28;20194;-64
2022/04/20 07:25:23;;;;;;;26.63;14.80;;;9.50;99.90;;;;;;5010627;28;20175;-65
2022/04/20 07:27:48;;;;;;;29.07;16.57;;;9.50;99.90;;;;;;4997465;28;20266;-64
2022/04/20 07:30:16;;;;;;;27.77;15.60;;;9.70;99.90;;;;;;4991369;28;20266;-61
2022/04/20 07:32:42;;;;;;;30.73;15.93;;;9.80;99.90;;;;;;4991176;28;20177;-59
2022/04/20 07:35:08;;;;;;;25.13;15.80;;;9.90;99.90;;;;;;4991182;28;20179;-59
2022/04/20 07:37:34;;;;;;;33.47;17.43;;;10.10;99.90;;;;;;5000675;28;20262;-59
2022/04/20 07:39:59;;;;;;;29.33;16.17;;;10.20;99.90;;;;;;5010459;28;20816;-59
2022/04/20 07:42:25;;;;;;;34.27;16.07;;;10.20;99.90;;;;;;4993889;28;20167;-59
2022/04/20 07:44:56;;;;;;;25.60;16.00;;;10.30;99.90;;;;;;4991749;28;20682;-59
2022/04/20 07:47:27;;;;;;;28.77;16.13;;;10.30;99.90;;;;;;4991396;28;20175;-58
2022/04/20 07:50:38;;;;;;;28.27;16.07;;;10.40;99.90;;;;;;4992199;28;20265;-59
2022/04/20 07:52:45;;;;;;;33.60;16.77;;;10.20;99.90;;;;;;4980064;28;20171;-59
2022/04/20 07:55:19;;;;;;;29.97;17.13;;;10.10;99.90;;;;;;4991257;28;20175;-59
2022/04/20 07:57:45;;;;;;;27.10;17.03;;;10.20;99.90;;;;;;4991455;28;20215;-59
2022/04/20 08:00:13;;;;;;;30.53;17.47;;;10.20;99.90;;;;;;5009581;28;20208;-59
2022/04/20 08:02:41;;;;;;;32.63;17.17;;;10.20;99.90;;;;;;5010569;28;20195;-60
2022/04/20 08:05:07;;;;;;;31.17;17.80;;;10.10;99.90;;;;;;5010801;28;20241;-59
2022/04/20 08:07:34;;;;;;;28.73;17.67;;;9.90;99.90;;;;;;5008570;28;20265;-59
2022/04/20 08:10:01;;;;;;;28.77;17.43;;;10.10;99.90;;;;;;5007533;28;20178;-60
2022/04/20 08:12:28;;;;;;;29.67;17.87;;;10.10;99.90;;;;;;5009972;28;20189;-60
2022/04/20 08:14:55;;;;;;;29.33;17.67;;;10.10;99.90;;;;;;5002528;28;20179;-63
2022/04/20 08:17:20;;;;;;;31.37;18.37;;;10.10;99.90;;;;;;5003838;28;20675;-63
2022/04/20 08:19:46;;;;;;;26.13;17.13;;;10.00;99.90;;;;;;5008471;28;20200;-60
2022/04/20 08:22:15;;;;;;;31.20;18.33;;;10.10;99.90;;;;;;5010391;28;20171;-62
2022/04/20 08:24:45;;;;;;;33.57;18.67;;;10.20;99.90;;;;;;4998483;28;20793;-62
2022/04/20 08:27:13;;;;;;;32.80;19.23;;;10.30;99.90;;;;;;4993292;28;20179;-63
2022/04/20 08:29:39;;;;;;;142.37;23.17;;;10.30;99.90;;;;;;4990252;28;20183;-60
2022/04/20 08:32:05;;;;;;;32.30;19.47;;;10.30;99.90;;;;;;4990307;28;20179;-61
2022/04/20 08:34:31;;;;;;;32.17;18.40;;;10.40;99.90;;;;;;4988713;28;20632;-61
2022/04/20 08:36:56;;;;;;;38.73;19.67;;;10.60;99.90;;;;;;4992009;28;20233;-64
2022/04/20 08:39:22;;;;;;;32.17;17.77;;;10.80;99.90;;;;;;4991129;28;20670;-64
2022/04/20 08:41:49;;;;;;;29.37;17.77;;;10.70;99.90;;;;;;4993908;28;20168;-61
2022/04/20 08:44:25;;;;;;;26.47;18.27;;;11.30;99.90;;;;;;4995562;28;20214;-76
2022/04/20 08:46:54;;;;;;;29.53;17.70;;;11.70;99.90;;;;;;4998596;28;20657;-59
2022/04/20 08:49:21;;;;;;;28.57;17.20;;;12.40;99.90;;;;;;4990466;28;20661;-62
2022/04/20 08:54:35;;;;;;;79.75;21.48;;;13.50;99.90;;;;;;4991302;28;20245;-68
2022/04/20 08:57:16;;;;;;;35.50;18.30;;;13.70;99.90;;;;;;4991394;28;20223;-69
2022/04/20 08:59:48;;;;;;;28.85;16.60;;;14.30;99.90;;;;;;4991071;28;20197;-68
2022/04/20 09:02:15;;;;;;;30.67;16.70;;;13.30;99.90;;;;;;5005753;28;20249;-68
2022/04/20 09:04:41;;;;;;;28.08;17.20;;;13.10;99.90;;;;;;5010351;28;20210;-68
2022/04/20 09:07:08;;;;;;;28.40;16.77;;;13.00;99.90;;;;;;5003009;28;20183;-68
2022/04/20 09:09:35;;;;;;;1999.90;362.55;;;13.10;99.90;;;;;;4994500;28;20777;-68
2022/04/20 09:12:00;;;;;;;260.90;36.08;;;13.70;99.90;;;;;;5001489;28;20184;-67
2022/04/20 09:14:30;;;;;;;32.67;18.10;;;14.10;99.90;;;;;;4995809;28;20584;-68
2022/04/20 09:16:56;;;;;;;27.00;17.55;;;14.50;99.90;;;;;;5010201;28;20662;-68
2022/04/20 09:19:26;;;;;;;26.60;16.17;;;14.80;99.90;;;;;;5005080;28;20185;-68
2022/04/20 09:21:52;;;;;;;292.98;42.58;;;15.20;99.90;;;;;;5010465;28;20210;-68
2022/04/20 09:24:19;;;;;;;423.00;47.08;;;15.40;99.90;;;;;;5004672;28;20211;-68
2022/04/20 09:26:56;;;;;;;45.50;16.17;;;16.00;99.90;;;;;;4990946;28;20218;-68
2022/04/20 09:29:22;;;;;;;27.67;16.50;;;16.10;99.90;;;;;;4990080;28;20673;-69
2022/04/20 09:31:50;;;;;;;38.72;16.58;;;15.60;99.90;;;;;;4990671;28;20230;-65
2022/04/20 09:34:35;;;;;;;31.52;15.77;;;15.80;99.90;;;;;;4990834;28;20310;-67
2022/04/20 09:37:14;;;;;;;23.23;15.55;;;15.10;99.90;;;;;;4996540;28;20194;-63
2022/04/20 09:39:46;;;;;;;675.95;84.22;;;16.40;99.90;;;;;;5009928;28;20178;-64
2022/04/20 09:42:11;;;;;;;48.47;17.15;;;16.80;99.90;;;;;;5010234;28;20178;-61
2022/04/20 09:44:40;;;;;;;24.92;15.02;;;17.50;99.90;;;;;;5011243;28;20203;-61
2022/04/20 09:50:02;;;;;;;22.88;14.63;;;18.80;99.90;;;;;;5014298;28;20660;-65
2022/04/20 09:52:42;;;;;;;27.48;14.25;;;18.90;99.90;;;;;;5013161;28;20174;-67
2022/04/20 09:55:12;;;;;;;26.58;14.85;;;19.10;99.90;;;;;;5014139;28;20642;-65
2022/04/20 09:57:38;;;;;;;34.78;15.13;;;19.00;99.90;;;;;;5013617;28;20700;-66
2022/04/20 10:00:12;;;;;;;29.90;14.85;;;18.50;99.90;;;;;;5012391;28;20194;-65
2022/04/20 10:02:51;;;;;;;1999.90;291.75;;;18.10;99.90;;;;;;5012984;28;20187;-66
2022/04/20 10:05:19;;;;;;;30.02;15.27;;;17.90;99.90;;;;;;5012875;28;20206;-66
2022/04/20 10:07:45;;;;;;;92.43;18.98;;;18.20;99.90;;;;;;5012676;28;20175;-60
2022/04/20 10:10:11;;;;;;;78.95;17.63;;;18.70;99.90;;;;;;5012848;28;20645;-60
2022/04/20 10:12:39;;;;;;;23.52;14.52;;;19.20;99.90;;;;;;4998024;28;20214;-60
2022/04/20 10:17:54;;;;;;;20.98;14.52;;;19.30;99.90;;;;;;5008364;28;20220;-60
2022/04/20 10:20:22;;;;;;;27.95;15.15;;;20.00;99.90;;;;;;5002814;28;20177;-64
2022/04/20 10:22:48;;;;;;;37.45;15.45;;;20.50;99.90;;;;;;5010479;28;20537;-64
2022/04/20 10:25:14;;;;;;;25.88;14.75;;;20.10;99.90;;;;;;4998820;28;20207;-65
2022/04/20 10:27:57;;;;;;;21.90;15.07;;;20.30;99.90;;;;;;5011860;28;20175;-67
2022/04/20 10:30:52;;;;;;;24.08;14.27;;;21.00;99.90;;;;;;5012510;28;20190;-66
2022/04/20 10:33:23;;;;;;;31.77;14.50;;;21.50;99.90;;;;;;4993787;28;20191;-66
2022/04/20 10:36:03;;;;;;;23.98;14.77;;;22.00;99.90;;;;;;4998412;28;20262;-66
2022/04/20 10:38:31;;;;;;;24.15;14.75;;;22.50;99.90;;;;;;4993530;28;20209;-67
2022/04/20 10:41:11;;;;;;;21.65;14.27;;;21.90;99.90;;;;;;4994206;28;20183;-67
2022/04/20 10:43:42;;;;;;;24.70;15.95;;;22.60;99.90;;;;;;5001076;28;20202;-68
2022/04/20 10:46:11;;;;;;;34.63;15.30;;;23.20;99.90;;;;;;5009235;28;20711;-67
2022/04/20 10:49:07;;;;;;;29.90;14.57;;;23.40;99.90;;;;;;5012820;28;20232;-67
2022/04/20 10:51:42;;;;;;;26.40;14.45;;;23.60;99.90;;;;;;5008346;28;20572;-66
2022/04/20 10:54:20;;;;;;;25.77;15.45;;;24.40;99.90;;;;;;5013162;28;20186;-68
2022/04/20 10:57:12;;;;;;;24.35;14.95;;;23.60;99.90;;;;;;5008685;28;20278;-67
2022/04/20 10:59:39;;;;;;;18.73;14.85;;;24.00;99.90;;;;;;4987574;28;20183;-67
2022/04/20 11:02:11;;;;;;;19.42;15.23;;;23.40;99.90;;;;;;5015959;28;20725;-67
2022/04/20 11:04:43;;;;;;;23.65;15.35;;;22.60;99.90;;;;;;5012630;28;20685;-66
2022/04/20 11:07:08;;;;;;;23.20;13.95;;;23.50;99.90;;;;;;5012445;28;20269;-68
2022/04/20 11:09:48;;;;;;;21.63;13.48;;;24.00;99.90;;;;;;5012542;28;20221;-67
2022/04/20 11:24:05;;;;;;;24.35;15.18;;;24.30;99.90;;;;;;5010074;28;20306;-62
2022/04/20 11:26:34;;;;;;;20.02;14.02;;;24.00;99.90;;;;;;5000161;28;20214;-62
2022/04/20 11:29:21;;;;;;;21.63;14.70;;;24.30;99.90;;;;;;5011928;28;20254;-62
2022/04/20 11:31:58;;;;;;;19.30;15.05;;;25.00;99.90;;;;;;5011705;28;20200;-62
2022/04/20 11:34:26;;;;;;;18.58;13.98;;;25.20;99.90;;;;;;4999728;28;20645;-62
2022/04/20 11:36:54;;;;;;;19.40;14.52;;;25.50;99.90;;;;;;4990489;28;20187;-62
2022/04/20 11:39:22;;;;;;;19.02;13.88;;;24.90;99.90;;;;;;4990319;28;20222;-62
2022/04/20 11:41:53;;;;;;;23.45;14.88;;;25.30;99.90;;;;;;4990192;28;20246;-62
2022/04/20 11:44:25;;;;;;;20.73;13.73;;;25.80;99.90;;;;;;4995379;28;20213;-62
2022/04/20 11:46:54;;;;;;;20.25;13.60;;;25.90;99.90;;;;;;4990003;28;20664;-62
2022/04/20 11:49:20;;;;;;;20.30;15.57;;;26.20;99.90;;;;;;5006918;28;20177;-62
2022/04/20 11:51:57;;;;;;;18.63;13.93;;;26.40;99.90;;;;;;5011242;28;20178;-62
2022/04/20 11:54:25;;;;;;;19.23;13.50;;;26.60;99.90;;;;;;5007143;28;20556;-63
2022/04/20 11:56:51;;;;;;;19.88;14.38;;;26.80;99.90;;;;;;5011103;28;20627;-62
2022/04/20 11:59:18;;;;;;;20.38;14.55;;;26.30;99.90;;;;;;5010254;28;20679;-62
2022/04/20 12:01:45;;;;;;;21.42;13.90;;;26.70;99.90;;;;;;4991920;28;20181;-62
2022/04/20 12:04:15;;;;;;;19.48;14.40;;;27.40;99.90;;;;;;4991742;28;20199;-62
2022/04/20 12:06:55;;;;;;;21.73;13.65;;;27.10;99.90;;;;;;4993011;28;20174;-62
2022/04/20 12:09:29;;;;;;;16.90;12.98;;;27.10;99.90;;;;;;5000038;28;20738;-62
2022/04/20 12:12:00;;;;;;;19.50;13.75;;;28.00;99.90;;;;;;5008690;28;20187;-62
2022/04/20 12:14:34;;;;;;;21.58;13.63;;;28.30;99.90;;;;;;5004304;28;20178;-63
2022/04/20 12:17:05;;;;;;;17.08;13.30;;;28.10;99.90;;;;;;5008064;28;20174;-63
2022/04/20 12:19:32;;;;;;;18.92;13.90;;;26.80;99.90;;;;;;5002675;28;20655;-63
2022/04/20 12:22:12;;;;;;;139.90;21.70;;;26.90;99.90;;;;;;4998373;28;20180;-63
2022/04/20 12:24:41;;;;;;;21.13;13.90;;;27.10;99.90;;;;;;4994796;28;20278;-63
2022/04/20 12:27:17;;;;;;;20.90;14.35;;;26.10;99.90;;;;;;4992221;28;20309;-63
2022/04/20 12:29:45;;;;;;;21.85;14.65;;;23.80;99.90;;;;;;5001846;28;20171;-62
2022/04/20 12:32:10;;;;;;;21.33;14.88;;;24.50;99.90;;;;;;4995832;28;20171;-62
2022/04/20 12:34:36;;;;;;;22.60;14.82;;;24.60;99.90;;;;;;5002112;28;20897;-62
2022/04/20 12:37:04;;;;;;;21.52;14.50;;;25.10;99.90;;;;;;5008716;28;20174;-61
2022/04/20 12:39:42;;;;;;;21.42;14.95;;;25.10;99.90;;;;;;5000681;28;20182;-61
2022/04/20 12:42:10;;;;;;;23.05;14.05;;;24.70;99.90;;;;;;5010437;28;20263;-61
2022/04/20 12:44:38;;;;;;;19.70;13.82;;;24.80;99.90;;;;;;5009831;28;20228;-62
2022/04/20 12:47:15;;;;;;;23.38;15.55;;;25.70;99.90;;;;;;5005869;28;20625;-62
2022/04/20 12:49:48;;;;;;;21.00;14.23;;;26.20;99.90;;;;;;5010188;28;20715;-63
2022/04/20 12:52:28;;;;;;;26.83;15.40;;;27.10;99.90;;;;;;5002243;28;20180;-63
2022/04/20 12:55:16;;;;;;;28.35;14.82;;;27.10;99.90;;;;;;4993070;28;20175;-62
2022/04/20 13:03:36;;;;;;;22.02;16.48;;;25.80;99.90;;;;;;5009683;28;20272;-61
2022/04/20 13:06:04;;;;;;;27.23;16.48;;;24.70;99.90;;;;;;4996095;28;20183;-61
2022/04/20 13:08:30;;;;;;;32.50;16.10;;;25.70;99.90;;;;;;4991172;28;20176;-61
2022/04/20 13:10:56;;;;;;;31.83;15.95;;;26.20;99.90;;;;;;4991305;28;20202;-61
2022/04/20 13:13:26;;;;;;;25.38;17.35;;;26.50;99.90;;;;;;4990759;28;20191;-61
2022/04/20 13:15:53;;;;;;;25.13;14.55;;;25.40;99.90;;;;;;5007427;28;20174;-62
2022/04/20 13:18:19;;;;;;;23.00;13.77;;;24.80;99.90;;;;;;5004548;28;20181;-61
2022/04/20 13:20:45;;;;;;;17.50;12.82;;;25.00;99.90;;;;;;5011418;28;20588;-62